createdAt,value
2022-08-09T00:00:20.793Z,1.80
2022-08-09T00:02:49.925Z,1.80
2022-08-09T00:06:18.957Z,1.90
2022-08-09T00:08:11.295Z,1.73
2022-08-09T00:10:40.815Z,8.80
2022-08-09T00:13:17.522Z,6.97
2022-08-09T00:15:59.198Z,4.88
2022-08-09T00:18:35.768Z,2.67
2022-08-09T00:21:05.037Z,1.88
2022-08-09T00:23:54.986Z,2.20
2022-08-09T00:26:19.870Z,2.22
2022-08-09T00:28:58.557Z,3.70
2022-08-09T00:31:55.863Z,3.55
2022-08-09T00:34:14.363Z,2.10
2022-08-09T00:36:42.110Z,2.60
2022-08-09T00:40:09.429Z,2.30
2022-08-09T00:44:14.089Z,2.08
2022-08-09T00:44:46.945Z,2.15
2022-08-09T00:47:15.629Z,2.50
2022-08-09T00:49:43.803Z,1.98
2022-08-09T00:52:30.199Z,2.13
2022-08-09T00:55:00.349Z,2.60
2022-08-09T00:57:34.300Z,2.28
2022-08-09T01:00:21.784Z,2.50
2022-08-09T01:02:57.888Z,2.30
2022-08-09T01:05:51.516Z,1.92
2022-08-09T01:08:48.988Z,2.05
2022-08-09T01:11:58.595Z,2.00
2022-08-09T01:14:32.258Z,2.10
2022-08-09T01:17:09.162Z,2.30
2022-08-09T01:20:01.703Z,2.67
2022-08-09T01:24:01.078Z,2.42
2022-08-09T01:26:09.847Z,2.03
2022-08-09T01:28:41.858Z,2.53
2022-08-09T01:32:30.058Z,2.22
2022-08-09T01:34:06.548Z,2.10
2022-08-09T01:36:38.730Z,2.30
2022-08-09T01:39:06.859Z,2.20
2022-08-09T01:41:53.701Z,2.47
2022-08-09T01:44:29.978Z,2.75
2022-08-09T01:46:59.948Z,2.63
2022-08-09T01:49:38.818Z,2.92
2022-08-09T01:52:09.363Z,2.75
2022-08-09T01:54:47.385Z,2.50
2022-08-09T01:57:23.778Z,2.63
2022-08-09T02:00:00.167Z,2.90
2022-08-09T02:02:32.041Z,2.80
2022-08-09T02:05:05.588Z,2.70
2022-08-09T02:08:39.589Z,2.45
2022-08-09T02:10:40.200Z,2.70
2022-08-09T02:13:12.557Z,2.67
2022-08-09T02:15:50.350Z,2.65
2022-08-09T02:18:23.056Z,2.95
2022-08-09T02:20:56.479Z,2.80
2022-08-09T02:23:27.919Z,2.50
2022-08-09T02:26:01.316Z,2.90
2022-08-09T02:28:37.360Z,2.70
2022-08-09T02:31:27.933Z,2.80
2022-08-09T02:34:07.043Z,2.55
2022-08-09T02:36:43.341Z,2.88
2022-08-09T02:39:20.109Z,2.60
2022-08-09T02:42:04.973Z,2.95
2022-08-09T02:44:36.200Z,2.80
2022-08-09T02:47:11.311Z,2.90
2022-08-09T02:50:02.573Z,2.53
2022-08-09T02:52:49.763Z,2.58
2022-08-09T02:55:24.671Z,2.25
2022-08-09T02:58:36.396Z,2.30
2022-08-09T03:01:04.513Z,2.30
2022-08-09T03:04:12.842Z,2.55
2022-08-09T03:06:27.252Z,2.50
2022-08-09T03:08:56.088Z,2.50
2022-08-09T03:11:30.175Z,2.67
2022-08-09T03:14:13.206Z,2.53
2022-08-09T03:16:44.848Z,2.63
2022-08-09T03:19:14.294Z,2.67
2022-08-09T03:22:03.081Z,2.50
2022-08-09T03:24:42.696Z,2.47
2022-08-09T03:27:17.697Z,2.55
2022-08-09T03:29:58.188Z,2.03
2022-08-09T03:32:32.329Z,2.05
2022-08-09T03:35:00.396Z,2.27
2022-08-09T03:37:54.647Z,2.05
2022-08-09T03:40:17.987Z,2.80
2022-08-09T03:42:46.590Z,2.35
2022-08-09T03:45:13.793Z,3.00
2022-08-09T03:47:46.519Z,2.30
2022-08-09T03:50:18.912Z,2.25
2022-08-09T03:53:03.147Z,2.35
2022-08-09T03:55:30.237Z,2.45
2022-08-09T03:58:14.802Z,2.20
2022-08-09T04:00:47.804Z,2.10
2022-08-09T04:03:19.738Z,2.28
2022-08-09T04:06:04.573Z,2.10
2022-08-09T04:08:34.560Z,2.50
2022-08-09T04:11:02.028Z,2.35
2022-08-09T04:14:36.967Z,2.42
2022-08-09T04:16:20.659Z,2.38
2022-08-09T04:18:50.967Z,2.45
2022-08-09T04:21:17.895Z,2.30
2022-08-09T04:23:54.485Z,2.63
2022-08-09T04:26:24.580Z,2.35
2022-08-09T04:28:54.071Z,2.33
2022-08-09T04:31:26.427Z,2.63
2022-08-09T04:34:04.675Z,2.38
2022-08-09T04:36:33.680Z,2.35
2022-08-09T04:39:02.985Z,2.30
2022-08-09T04:41:32.502Z,2.65
2022-08-09T04:44:05.931Z,2.30
2022-08-09T04:46:57.374Z,2.20
2022-08-09T04:49:40.220Z,2.28
2022-08-09T04:52:10.779Z,2.33
2022-08-09T04:54:38.028Z,2.47
2022-08-09T04:57:04.874Z,2.08
2022-08-09T04:59:36.144Z,2.40
2022-08-09T05:02:03.235Z,2.20
2022-08-09T05:04:30.854Z,2.22
2022-08-09T05:06:58.358Z,2.10
2022-08-09T05:09:25.194Z,2.40
2022-08-09T05:12:09.784Z,2.38
2022-08-09T05:14:39.226Z,2.28
2022-08-09T05:17:15.282Z,2.20
2022-08-09T05:19:56.953Z,2.40
2022-08-09T05:22:36.084Z,2.63
2022-08-09T05:25:11.143Z,2.05
2022-08-09T05:27:39.003Z,2.05
2022-08-09T05:30:13.580Z,1.90
2022-08-09T05:32:41.056Z,1.98
2022-08-09T05:35:11.427Z,2.15
2022-08-09T05:37:47.855Z,1.95
2022-08-09T05:40:18.361Z,2.15
2022-08-09T05:42:45.371Z,2.20
2022-08-09T05:45:14.319Z,2.00
2022-08-09T05:47:51.735Z,2.10
2022-08-09T05:50:39.963Z,1.85
2022-08-09T05:53:21.753Z,2.05
2022-08-09T05:56:00.015Z,2.05
2022-08-09T05:58:28.482Z,2.13
2022-08-09T06:00:55.147Z,2.33
2022-08-09T06:03:21.833Z,1.90
2022-08-09T06:05:57.369Z,1.90
2022-08-09T06:08:31.861Z,1.80
2022-08-09T06:10:59.232Z,1.95
2022-08-09T06:13:28.640Z,1.80
2022-08-09T06:16:04.686Z,1.95
2022-08-09T06:18:32.696Z,2.03
2022-08-09T06:21:01.078Z,1.70
2022-08-09T06:23:58.688Z,1.98
2022-08-09T06:26:20.321Z,2.10
2022-08-09T06:29:00.106Z,1.83
2022-08-09T06:31:39.341Z,2.42
2022-08-09T06:34:22.519Z,1.90
2022-08-09T06:36:59.157Z,2.08
2022-08-09T06:39:39.610Z,2.20
2022-08-09T06:42:13.838Z,2.78
2022-08-09T06:44:40.513Z,2.00
2022-08-09T06:47:08.465Z,1.95
2022-08-09T06:50:12.083Z,2.40
2022-08-09T06:52:23.687Z,1.88
2022-08-09T06:54:52.181Z,2.30
2022-08-09T06:57:25.758Z,2.03
2022-08-09T07:00:51.955Z,1.98
2022-08-09T07:02:56.101Z,2.00
2022-08-09T07:05:24.606Z,2.00
2022-08-09T07:08:11.214Z,1.90
2022-08-09T07:10:39.010Z,1.90
2022-08-09T07:13:27.878Z,1.98
2022-08-09T07:16:39.258Z,2.40
2022-08-09T07:18:39.393Z,1.77
2022-08-09T07:21:07.674Z,1.95
2022-08-09T07:23:36.222Z,2.28
2022-08-09T07:26:04.246Z,2.80
2022-08-09T07:28:34.872Z,1.80
2022-08-09T07:31:04.905Z,2.10
2022-08-09T07:33:52.795Z,1.88
2022-08-09T07:36:22.136Z,1.90
2022-08-09T07:38:58.232Z,1.70
2022-08-09T07:41:27.825Z,2.50
2022-08-09T07:44:00.050Z,1.98
2022-08-09T07:46:27.703Z,1.88
2022-08-09T07:48:59.227Z,1.92
2022-08-09T07:52:05.485Z,2.13
2022-08-09T07:54:15.547Z,1.63
2022-08-09T07:56:49.665Z,1.60
2022-08-09T07:59:34.885Z,2.03
2022-08-09T08:02:08.821Z,1.80
2022-08-09T08:04:36.643Z,1.80
2022-08-09T08:07:14.837Z,1.77
2022-08-09T08:09:55.205Z,1.98
2022-08-09T08:12:43.758Z,1.90
2022-08-09T08:15:16.450Z,2.20
2022-08-09T08:17:54.514Z,1.80
2022-08-09T08:20:30.485Z,1.63
2022-08-09T08:23:06.946Z,1.45
2022-08-09T08:25:48.377Z,1.85
2022-08-09T08:28:18.141Z,1.55
2022-08-09T08:30:52.953Z,1.50
2022-08-09T08:33:23.040Z,1.70
2022-08-09T08:35:58.537Z,1.75
2022-08-09T08:38:29.243Z,1.50
2022-08-09T08:40:57.779Z,1.70
2022-08-09T08:43:26.545Z,1.60
2022-08-09T08:46:03.695Z,1.60
2022-08-09T08:48:37.115Z,1.58
2022-08-09T08:51:04.263Z,1.55
2022-08-09T08:53:36.870Z,1.52
2022-08-09T08:56:05.126Z,1.60
2022-08-09T08:58:33.528Z,1.50
2022-08-09T09:01:08.985Z,1.52
2022-08-09T09:03:50.545Z,1.70
2022-08-09T09:06:19.588Z,1.55
2022-08-09T09:08:52.593Z,1.60
2022-08-09T09:11:20.801Z,1.55
2022-08-09T09:13:56.933Z,1.50
2022-08-09T09:16:29.867Z,1.50
2022-08-09T09:19:37.618Z,1.33
2022-08-09T09:22:04.388Z,1.70
2022-08-09T09:24:37.246Z,1.80
2022-08-09T09:27:06.115Z,1.63
2022-08-09T09:30:10.570Z,1.80
2022-08-09T09:32:34.373Z,1.60
2022-08-09T09:35:10.782Z,1.70
2022-08-09T09:37:45.492Z,1.60
2022-08-09T09:40:12.435Z,1.63
2022-08-09T09:42:46.096Z,1.50
2022-08-09T09:45:14.510Z,1.73
2022-08-09T09:47:58.283Z,1.55
2022-08-09T09:50:50.575Z,1.48
2022-08-09T09:53:43.791Z,1.80
2022-08-09T09:56:31.124Z,1.88
2022-08-09T09:58:57.558Z,1.48
2022-08-09T10:01:36.829Z,1.35
2022-08-09T10:04:22.749Z,1.33
2022-08-09T10:06:57.468Z,1.70
2022-08-09T10:09:24.360Z,1.50
2022-08-09T10:12:12.485Z,1.30
2022-08-09T10:14:48.712Z,2.20
2022-08-09T10:17:50.272Z,1.40
2022-08-09T10:20:27.171Z,2.05
2022-08-09T10:23:17.173Z,1.48
2022-08-09T10:26:07.678Z,1.48
2022-08-09T10:28:34.852Z,1.30
2022-08-09T10:34:10.208Z,1.50
2022-08-09T10:36:39.021Z,1.40
2022-08-09T10:39:16.069Z,1.52
2022-08-09T10:41:47.696Z,1.30
2022-08-09T10:44:23.009Z,3.58
2022-08-09T10:48:13.326Z,3.20
2022-08-09T10:50:04.648Z,1.88
2022-08-09T10:52:53.131Z,1.30
2022-08-09T10:55:24.491Z,1.10
2022-08-09T11:00:31.261Z,1.20
2022-08-09T11:03:15.648Z,1.20
2022-08-09T11:06:18.693Z,1.45
2022-08-09T11:08:51.041Z,1.48
2022-08-09T11:11:20.489Z,1.40
2022-08-09T11:13:50.554Z,1.17
2022-08-09T11:16:39.187Z,2.10
2022-08-09T11:19:10.427Z,1.33
2022-08-09T11:22:05.244Z,1.10
2022-08-09T11:25:05.631Z,1.40
2022-08-09T11:28:03.534Z,1.50
2022-08-09T11:30:33.463Z,1.10
2022-08-09T11:33:10.987Z,1.10
2022-08-09T11:35:49.502Z,1.02
2022-08-09T11:38:34.058Z,1.10
2022-08-09T11:41:38.461Z,1.17
2022-08-09T11:44:07.783Z,1.10
2022-08-09T11:46:54.722Z,1.20
2022-08-09T11:50:53.687Z,1.33
2022-08-09T11:53:16.183Z,1.30
2022-08-09T11:55:52.036Z,1.20
2022-08-09T11:58:19.806Z,1.30
2022-08-09T12:01:01.590Z,1.08
2022-08-09T12:03:55.626Z,1.10
2022-08-09T12:06:26.723Z,1.17
2022-08-09T12:09:01.223Z,1.08
2022-08-09T12:11:28.676Z,1.30
2022-08-09T12:14:07.452Z,1.27
2022-08-09T12:16:40.282Z,1.20
2022-08-09T12:19:13.106Z,1.00
2022-08-09T12:21:50.820Z,1.10
2022-08-09T12:24:25.866Z,1.15
2022-08-09T12:28:59.288Z,0.95
2022-08-09T12:30:02.006Z,1.13
2022-08-09T12:32:41.920Z,1.40
2022-08-09T12:35:12.547Z,1.15
2022-08-09T12:37:51.748Z,1.15
2022-08-09T12:40:24.881Z,1.27
2022-08-09T12:45:33.670Z,1.20
2022-08-09T12:48:19.966Z,0.90
2022-08-09T12:50:57.800Z,1.08
2022-08-09T12:53:38.804Z,1.10
2022-08-09T12:56:43.620Z,1.30
2022-08-09T12:59:16.892Z,1.10
2022-08-09T13:04:35.988Z,1.25
2022-08-09T13:07:13.563Z,1.27
2022-08-09T13:09:52.700Z,1.10
2022-08-09T13:12:22.361Z,0.90
2022-08-09T13:14:54.309Z,1.13
2022-08-09T13:18:03.090Z,1.00
2022-08-09T13:20:18.864Z,1.30
2022-08-09T13:23:05.163Z,1.10
2022-08-09T13:25:52.973Z,1.20
2022-08-09T13:28:33.680Z,1.23
2022-08-09T13:32:12.383Z,3.07
2022-08-09T13:33:53.036Z,1.20
2022-08-09T13:36:24.698Z,1.20
2022-08-09T13:41:52.042Z,1.10
2022-08-09T13:42:15.531Z,1.30
2022-08-09T13:44:43.692Z,1.02
2022-08-09T13:47:27.026Z,1.17
2022-08-09T13:50:12.553Z,1.10
2022-08-09T13:52:45.964Z,1.10
2022-08-09T13:55:17.756Z,1.02
2022-08-09T13:57:56.000Z,1.08
2022-08-09T14:00:28.319Z,1.30
2022-08-09T14:03:04.201Z,1.20
2022-08-09T14:05:59.765Z,1.40
2022-08-09T14:08:30.511Z,1.27
2022-08-09T14:11:00.298Z,1.02
2022-08-09T14:14:15.153Z,1.10
2022-08-09T14:16:17.726Z,1.08
2022-08-09T14:18:49.811Z,1.20
2022-08-09T14:21:23.075Z,1.05
2022-08-09T14:23:56.532Z,1.27
2022-08-09T14:26:31.696Z,1.48
2022-08-09T14:29:01.900Z,1.20
2022-08-09T14:31:49.473Z,1.20
2022-08-09T14:34:17.391Z,1.13
2022-08-09T14:36:54.299Z,1.00
2022-08-09T14:39:21.133Z,1.20
2022-08-09T14:42:07.515Z,1.08
2022-08-09T14:44:48.541Z,1.00
2022-08-09T14:47:39.878Z,2.38
2022-08-09T14:50:08.639Z,1.70
2022-08-09T14:52:37.896Z,1.25
2022-08-09T14:55:06.945Z,1.15
2022-08-09T14:57:43.233Z,1.20
2022-08-09T15:00:11.735Z,1.00
2022-08-09T15:02:38.800Z,0.95
2022-08-09T15:05:07.500Z,1.48
2022-08-09T15:07:35.356Z,1.00
2022-08-09T15:10:10.765Z,1.10
2022-08-09T15:12:45.073Z,1.05
2022-08-09T15:15:12.997Z,1.10
2022-08-09T15:17:42.620Z,0.90
2022-08-09T15:20:15.401Z,1.02
2022-08-09T15:24:01.406Z,0.90
2022-08-09T15:25:52.328Z,1.00
2022-08-09T15:28:24.043Z,0.98
2022-08-09T15:31:01.963Z,1.20
2022-08-09T15:34:17.600Z,1.10
2022-08-09T15:36:21.949Z,0.90
2022-08-09T15:38:55.347Z,1.13
2022-08-09T15:41:23.342Z,1.10
2022-08-09T15:44:02.845Z,1.20
2022-08-09T15:49:20.612Z,1.00
2022-08-09T15:52:05.235Z,0.90
2022-08-09T15:54:44.632Z,1.40
2022-08-09T15:57:34.611Z,1.10
2022-08-09T16:00:14.298Z,1.13
2022-08-09T16:02:54.077Z,1.20
2022-08-09T16:05:22.636Z,1.13
2022-08-09T16:07:50.799Z,1.00
2022-08-09T16:10:56.284Z,1.10
2022-08-09T16:13:05.266Z,1.20
2022-08-09T16:16:10.495Z,1.10
2022-08-09T16:18:32.735Z,1.05
2022-08-09T16:20:59.469Z,1.00
2022-08-09T16:23:26.982Z,1.17
2022-08-09T16:26:01.056Z,1.38
2022-08-09T16:28:29.685Z,1.00
2022-08-09T16:30:58.936Z,1.20
2022-08-09T16:33:26.910Z,1.02
2022-08-09T16:36:00.908Z,1.25
2022-08-09T16:38:31.282Z,1.20
2022-08-09T16:40:59.039Z,1.33
2022-08-09T16:43:30.855Z,1.20
2022-08-09T16:45:57.581Z,1.05
2022-08-09T16:48:38.161Z,1.00
2022-08-09T16:51:13.632Z,1.00
2022-08-09T16:54:17.983Z,0.98
2022-08-09T16:56:33.459Z,1.17
2022-08-09T16:59:06.719Z,1.02
2022-08-09T17:01:38.686Z,1.20
2022-08-09T17:04:06.741Z,1.33
2022-08-09T17:07:04.715Z,1.00
2022-08-09T17:09:44.856Z,1.27
2022-08-09T17:12:08.542Z,1.70
2022-08-09T17:14:35.430Z,1.20
2022-08-09T17:17:25.949Z,0.90
2022-08-09T17:20:30.596Z,1.17
2022-08-09T17:22:50.313Z,0.90
2022-08-09T17:25:20.361Z,1.20
2022-08-09T17:27:54.469Z,1.20
2022-08-09T17:30:28.896Z,1.02
2022-08-09T17:33:04.794Z,1.42
2022-08-09T17:35:34.869Z,1.10
2022-08-09T17:38:11.282Z,1.45
2022-08-09T17:40:41.537Z,1.40
2022-08-09T17:43:34.889Z,1.48
2022-08-09T17:46:04.390Z,1.40
2022-08-09T17:48:39.791Z,1.08
2022-08-09T17:51:18.087Z,1.40
2022-08-09T17:53:55.291Z,1.20
2022-08-09T17:56:27.218Z,1.20
2022-08-09T17:58:55.716Z,1.20
2022-08-09T18:01:23.680Z,1.20
2022-08-09T18:03:52.579Z,1.50
2022-08-09T18:06:31.647Z,1.40
2022-08-09T18:09:03.221Z,1.60
2022-08-09T18:12:05.216Z,1.20
2022-08-09T18:14:20.678Z,1.30
2022-08-09T18:16:48.792Z,1.10
2022-08-09T18:21:01.751Z,1.40
2022-08-09T18:22:04.285Z,1.33
2022-08-09T18:24:31.298Z,1.20
2022-08-09T18:27:01.402Z,1.20
2022-08-09T18:30:38.040Z,1.20
2022-08-09T18:32:19.025Z,1.08
2022-08-09T18:34:46.058Z,1.20
2022-08-09T18:37:48.119Z,1.60
2022-08-09T18:40:02.765Z,1.30
2022-08-09T18:42:30.465Z,1.45
2022-08-09T18:45:01.053Z,1.20
2022-08-09T18:47:37.176Z,1.33
2022-08-09T18:50:05.934Z,1.60
2022-08-09T18:52:36.191Z,1.40
2022-08-09T18:55:04.979Z,1.40
2022-08-09T18:57:38.592Z,1.10
2022-08-09T19:00:11.822Z,1.23
2022-08-09T19:02:43.659Z,1.15
2022-08-09T19:05:19.799Z,0.95
2022-08-09T19:07:59.319Z,1.35
2022-08-09T19:10:37.353Z,1.42
2022-08-09T19:13:23.216Z,1.63
2022-08-09T19:15:58.605Z,1.40
2022-08-09T19:18:33.925Z,1.40
2022-08-09T19:21:05.473Z,1.50
2022-08-09T19:24:37.975Z,1.20
2022-08-09T19:26:31.251Z,1.10
2022-08-09T19:29:01.658Z,1.13
2022-08-09T19:31:30.433Z,1.23
2022-08-09T19:36:51.795Z,1.10
2022-08-09T19:39:43.944Z,1.38
2022-08-09T19:42:08.574Z,1.35
2022-08-09T19:44:37.035Z,1.35
2022-08-09T19:47:04.093Z,1.30
2022-08-09T19:50:10.139Z,1.23
2022-08-09T19:52:18.279Z,1.58
2022-08-09T19:54:45.622Z,1.40
2022-08-09T19:57:13.121Z,1.50
2022-08-09T20:00:05.787Z,7.45
2022-08-09T20:04:11.549Z,6.50
2022-08-09T20:05:16.670Z,12.73
2022-08-09T20:07:59.181Z,4.13
2022-08-09T20:10:36.446Z,1.85
2022-08-09T20:13:06.345Z,2.83
2022-08-09T20:16:35.606Z,1.70
2022-08-09T20:18:22.792Z,1.83
2022-08-09T20:20:55.915Z,1.50
2022-08-09T20:23:23.915Z,2.47
2022-08-09T20:25:53.545Z,1.67
2022-08-09T20:28:34.365Z,6.75
2022-08-09T20:31:09.279Z,10.85
2022-08-09T20:33:41.190Z,2.90
2022-08-09T20:36:12.432Z,7.57
2022-08-09T20:41:35.098Z,2.40
2022-08-09T20:44:10.236Z,1.38
2022-08-09T20:46:44.733Z,1.50
2022-08-09T20:49:16.130Z,1.58
2022-08-09T20:51:50.530Z,1.58
2022-08-09T20:54:18.730Z,1.40
2022-08-09T20:56:49.761Z,1.85
2022-08-09T20:59:50.297Z,1.55
2022-08-09T21:02:17.589Z,1.25
2022-08-09T21:05:54.547Z,1.48
2022-08-09T21:07:40.666Z,8.18
2022-08-09T21:10:12.134Z,30.77
2022-08-09T21:12:40.334Z,20.80
2022-08-09T21:15:15.029Z,7.90
2022-08-09T21:18:10.976Z,2.55
2022-08-09T21:20:30.721Z,2.10
2022-08-09T21:23:00.334Z,1.75
2022-08-09T21:25:56.364Z,1.45
2022-08-09T21:28:33.818Z,1.60
2022-08-09T21:31:16.681Z,5.70
2022-08-09T21:33:50.918Z,1.80
2022-08-09T21:36:25.956Z,4.32
2022-08-09T21:38:57.448Z,2.20
2022-08-09T21:42:03.975Z,2.28
2022-08-09T21:44:34.744Z,1.90
2022-08-09T21:47:11.766Z,1.92
2022-08-09T21:49:44.426Z,1.90
2022-08-09T21:52:17.161Z,1.58
2022-08-09T21:55:03.384Z,1.42
2022-08-09T21:57:39.219Z,1.70
2022-08-09T22:00:25.391Z,1.40
2022-08-09T22:02:58.072Z,1.85
2022-08-09T22:05:35.835Z,1.48
2022-08-09T22:08:13.655Z,1.60
2022-08-09T22:11:00.512Z,1.35
2022-08-09T22:13:37.391Z,1.85
2022-08-09T22:16:07.614Z,1.67
2022-08-09T22:18:37.292Z,1.38
2022-08-09T22:21:09.497Z,1.70
2022-08-09T22:23:59.998Z,1.70
2022-08-09T22:26:35.577Z,1.60
2022-08-09T22:29:09.552Z,1.80
2022-08-09T22:34:09.649Z,2.08
2022-08-09T22:36:45.558Z,1.50
2022-08-09T22:39:20.552Z,1.90
2022-08-09T22:42:03.963Z,1.60
2022-08-09T22:44:33.939Z,1.77
2022-08-09T22:48:18.480Z,1.60
2022-08-09T22:49:51.814Z,1.27
2022-08-09T22:52:19.863Z,1.50
2022-08-09T22:54:47.703Z,1.65
2022-08-09T22:57:15.457Z,1.52
2022-08-09T22:59:56.405Z,1.60
2022-08-09T23:02:25.313Z,1.25
2022-08-09T23:04:54.718Z,1.35
2022-08-09T23:08:23.355Z,1.77
2022-08-09T23:10:31.894Z,1.65
2022-08-09T23:12:59.168Z,1.60
2022-08-09T23:15:27.187Z,1.50
2022-08-09T23:17:55.884Z,1.90
2022-08-09T23:20:23.392Z,1.42
2022-08-09T23:22:50.034Z,1.50
2022-08-09T23:25:16.710Z,1.65
2022-08-09T23:28:14.228Z,1.52
2022-08-09T23:30:30.663Z,1.40
2022-08-09T23:32:57.407Z,1.60
2022-08-09T23:35:24.158Z,1.80
2022-08-09T23:37:50.800Z,1.67
2022-08-09T23:40:17.488Z,1.70
2022-08-09T23:42:44.307Z,1.50
2022-08-09T23:45:11.251Z,1.85
2022-08-09T23:47:57.908Z,1.58
2022-08-09T23:50:24.640Z,1.55
2022-08-09T23:52:51.385Z,1.80
2022-08-09T23:55:18.153Z,1.48
2022-08-09T23:57:56.219Z,1.48
